Time;durP1;ratioP1;P1;durP2;ratioP2;P2;SDS_P1;SDS_P2;PMS_P1;PMS_P2;Temp;Humidity;BMP_temperature;BMP_pressure;BME280_temperature;BME280_humidity;BME280_pressure;Samples;Min_cycle;Max_cycle;Signal;HPM_P1;HPM_P2
2021/07/02 00:01:18;;;;;;;1.50;1.40;;;;;;;18.40;60.81;99317.22;5035288;28;20226;-89
2021/07/02 00:03:45;;;;;;;1.37;1.27;;;;;;;18.39;60.84;99303.91;5034857;28;20221;-89
2021/07/02 00:06:12;;;;;;;1.40;1.30;;;;;;;18.38;60.79;99300.38;5022126;28;20305;-88
2021/07/02 00:08:39;;;;;;;1.20;1.20;;;;;;;18.48;60.62;99313.91;5053717;28;20229;-85
2021/07/02 00:11:06;;;;;;;1.43;1.33;;;;;;;18.49;60.67;99312.81;5055403;28;20226;-90
2021/07/02 00:13:32;;;;;;;1.63;1.53;;;;;;;18.46;60.72;99320.72;5018720;28;20309;-87
2021/07/02 00:15:59;;;;;;;1.60;1.47;;;;;;;18.36;60.73;99309.91;5002759;28;20621;-88
2021/07/02 00:18:26;;;;;;;1.40;1.30;;;;;;;18.37;60.90;99303.41;5051192;28;20218;-86
2021/07/02 00:20:53;;;;;;;1.47;1.37;;;;;;;18.42;60.96;99311.50;5038800;28;20225;-88
2021/07/02 00:23:20;;;;;;;1.73;1.63;;;;;;;18.32;61.27;99308.84;5054998;28;20230;-88
2021/07/02 00:25:46;;;;;;;1.50;1.40;;;;;;;18.34;60.97;99293.91;5055234;28;20225;-85
2021/07/02 00:28:13;;;;;;;1.63;1.50;;;;;;;18.29;61.08;99287.72;5021637;28;20230;-88
2021/07/02 00:30:40;;;;;;;1.70;1.60;;;;;;;18.26;61.50;99291.78;5038789;28;20232;-89
2021/07/02 00:33:08;;;;;;;2.17;1.50;;;;;;;18.27;61.11;99279.84;5037763;28;20251;-87
2021/07/02 00:35:35;;;;;;;1.50;1.40;;;;;;;18.21;61.91;99278.22;5035025;28;20238;-88
2021/07/02 00:38:02;;;;;;;1.50;1.40;;;;;;;18.06;62.24;99278.28;5018437;28;20230;-89
2021/07/02 00:40:28;;;;;;;1.60;1.50;;;;;;;17.97;62.41;99274.53;5018754;28;20230;-89
2021/07/02 00:42:55;;;;;;;1.70;1.60;;;;;;;18.00;62.33;99285.66;5044879;28;20260;-87
2021/07/02 00:45:22;;;;;;;1.50;1.40;;;;;;;17.88;62.87;99282.41;5030271;28;20226;-86
2021/07/02 00:47:49;;;;;;;1.47;1.37;;;;;;;17.84;62.67;99283.25;5038835;28;20316;-86
2021/07/02 00:50:17;;;;;;;1.97;1.40;;;;;;;17.71;63.35;99289.25;5038125;28;20633;-89
2021/07/02 00:52:44;;;;;;;1.93;1.50;;;;;;;17.64;63.41;99286.81;5038304;28;20275;-89
2021/07/02 00:55:11;;;;;;;1.70;1.60;;;;;;;17.58;63.84;99290.59;5037722;28;20228;-89
2021/07/02 00:57:39;;;;;;;1.80;1.70;;;;;;;17.52;63.84;99289.78;5038173;28;20222;-87
2021/07/02 01:00:08;;;;;;;1.60;1.50;;;;;;;17.48;64.13;99287.88;5037882;28;20254;-89
2021/07/02 01:02:36;;;;;;;1.43;1.33;;;;;;;17.40;64.22;99281.16;5021632;28;20233;-85
2021/07/02 01:05:06;;;;;;;1.77;1.60;;;;;;;17.37;64.23;99281.66;5018060;28;20222;-89
2021/07/02 01:07:34;;;;;;;1.87;1.77;;;;;;;17.29;64.67;99271.38;5002613;28;20234;-89
2021/07/02 01:10:03;;;;;;;2.30;1.50;;;;;;;17.33;64.86;99277.88;5017849;28;20222;-84
2021/07/02 01:12:31;;;;;;;1.63;1.40;;;;;;;17.43;64.40;99272.47;5012334;28;20598;-87
2021/07/02 01:14:59;;;;;;;1.97;1.70;;;;;;;17.28;64.66;99269.75;5054316;28;20241;-87
2021/07/02 01:17:26;;;;;;;1.77;1.57;;;;;;;17.39;64.69;99282.22;5054433;28;20225;-88
2021/07/02 01:19:54;;;;;;;2.00;1.60;;;;;;;17.47;64.11;99268.13;5037807;28;20222;-84
2021/07/02 01:22:29;;;;;;;1.70;1.40;;;;;;;17.59;63.47;99270.56;5023536;28;20228;-90
2021/07/02 01:24:58;;;;;;;2.03;1.80;;;;;;;17.67;62.86;99272.72;5034878;28;20309;-87
2021/07/02 01:27:28;;;;;;;2.10;2.00;;;;;;;17.76;62.09;99268.38;5018527;28;20226;-89
2021/07/02 01:29:57;;;;;;;2.00;1.90;;;;;;;17.73;62.82;99277.03;5018844;28;20545;-90
2021/07/02 01:32:24;;;;;;;2.13;1.97;;;;;;;17.71;62.57;99264.84;5055175;28;20226;-88
2021/07/02 01:34:52;;;;;;;2.10;1.90;;;;;;;17.63;62.76;99273.56;5025880;28;20279;-89
2021/07/02 01:37:20;;;;;;;2.00;1.90;;;;;;;17.66;62.60;99273.81;5041735;28;20252;-84
2021/07/02 01:39:47;;;;;;;1.80;1.70;;;;;;;17.66;62.73;99270.28;5058317;28;20312;-88
2021/07/02 01:42:14;;;;;;;3.43;2.40;;;;;;;17.67;62.63;99280.03;5022462;28;20240;-86
2021/07/02 01:44:42;;;;;;;2.20;1.83;;;;;;;17.76;62.43;99267.56;5058325;28;20304;-87
2021/07/02 01:47:11;;;;;;;2.67;2.00;;;;;;;17.63;62.62;99266.25;5058201;28;20284;-89
2021/07/02 01:49:38;;;;;;;1.90;1.80;;;;;;;17.51;63.01;99265.66;5041096;28;20694;-89
2021/07/02 01:52:05;;;;;;;2.10;2.00;;;;;;;17.50;62.93;99264.03;5024128;28;20283;-86
2021/07/02 01:54:32;;;;;;;2.10;1.70;;;;;;;17.43;63.20;99255.41;5041728;28;20245;-89
2021/07/02 01:57:04;;;;;;;2.20;2.00;;;;;;;17.43;63.04;99263.53;5041738;28;20609;-89
2021/07/02 01:59:33;;;;;;;2.10;1.90;;;;;;;17.47;62.72;99251.88;5041753;28;20308;-90
2021/07/02 02:02:04;;;;;;;2.47;1.93;;;;;;;17.41;62.47;99250.25;5037447;28;20225;-88
2021/07/02 02:04:31;;;;;;;2.23;1.87;;;;;;;17.37;62.31;99256.47;5037943;28;20230;-86
2021/07/02 02:06:59;;;;;;;2.20;2.00;;;;;;;17.30;62.75;99270.31;5038170;28;20295;-88
2021/07/02 02:09:28;;;;;;;2.50;2.30;;;;;;;17.25;62.99;99270.31;5024715;28;20222;-90
2021/07/02 02:11:57;;;;;;;2.57;2.00;;;;;;;17.37;62.60;99254.59;5037996;28;20232;-88
2021/07/02 02:14:31;;;;;;;3.00;2.27;;;;;;;17.37;62.71;99261.91;5022188;28;20225;-86
2021/07/02 02:17:01;;;;;;;4.07;2.33;;;;;;;17.33;63.02;99277.88;5038389;28;20233;-89
2021/07/02 02:19:29;;;;;;;2.50;2.30;;;;;;;17.37;62.81;99261.91;5056925;28;20537;-89
2021/07/02 02:21:56;;;;;;;2.50;2.30;;;;;;;17.24;63.43;99260.56;5033857;28;20276;-87
2021/07/02 02:24:29;;;;;;;2.60;2.30;;;;;;;17.30;63.56;99255.97;5021661;28;20280;-87
2021/07/02 02:26:56;;;;;;;4.90;2.60;;;;;;;17.22;63.39;99254.59;5037619;28;20237;-90
2021/07/02 02:29:23;;;;;;;2.53;2.33;;;;;;;17.45;63.08;99269.50;5040831;28;20281;-90
2021/07/02 02:31:51;;;;;;;4.10;2.67;;;;;;;17.37;63.00;99256.47;5041110;28;20279;-91
2021/07/02 02:34:20;;;;;;;3.60;2.63;;;;;;;17.24;63.76;99262.44;5040949;28;20530;-90
2021/07/02 02:36:49;;;;;;;2.73;2.53;;;;;;;17.33;63.76;99263.53;5057662;28;20317;-91
2021/07/02 02:39:17;;;;;;;2.70;2.50;;;;;;;17.31;63.45;99261.09;5040024;28;20228;-88
2021/07/02 02:41:44;;;;;;;3.27;2.70;;;;;;;17.37;63.50;99268.13;5037253;28;20340;-86
2021/07/02 02:44:11;;;;;;;2.70;2.50;;;;;;;17.31;63.67;99261.09;5038978;28;20243;-88
2021/07/02 02:46:40;;;;;;;2.93;2.67;;;;;;;17.30;63.89;99264.91;5040705;28;20217;-89
2021/07/02 02:49:07;;;;;;;3.00;2.53;;;;;;;17.31;63.66;99255.66;5029388;28;20229;-89
2021/07/02 02:51:34;;;;;;;2.77;2.50;;;;;;;17.43;62.97;99264.34;5024091;28;20318;-88
2021/07/02 02:54:02;;;;;;;2.70;2.50;;;;;;;17.33;63.19;99264.34;5040033;28;20663;-89
2021/07/02 02:56:29;;;;;;;2.53;2.33;;;;;;;17.37;63.10;99260.00;5040553;28;20704;-91
2021/07/02 02:58:58;;;;;;;2.47;2.27;;;;;;;17.25;63.44;99256.78;5037357;28;20284;-85
2021/07/02 03:01:27;;;;;;;2.80;2.60;;;;;;;17.12;63.79;99254.63;5039248;28;20671;-87
2021/07/02 03:03:53;;;;;;;2.77;2.57;;;;;;;17.13;64.17;99262.44;5024069;28;20340;-87
2021/07/02 03:06:20;;;;;;;3.00;2.40;;;;;;;17.23;63.65;99256.22;5023785;28;20231;-90
2021/07/02 03:08:47;;;;;;;2.80;2.60;;;;;;;17.26;63.85;99268.41;5039960;28;20233;-90
2021/07/02 03:11:16;;;;;;;2.70;2.20;;;;;;;17.23;63.60;99264.34;5036632;28;20641;-89
2021/07/02 03:13:43;;;;;;;3.53;2.50;;;;;;;17.19;63.73;99265.97;5020736;28;20226;-89
2021/07/02 03:16:13;;;;;;;2.63;2.37;;;;;;;17.18;63.52;99267.06;5004460;28;20230;-90
2021/07/02 03:18:46;;;;;;;2.70;2.40;;;;;;;17.33;63.11;99282.47;5025101;28;20224;-90
2021/07/02 03:21:13;;;;;;;2.80;2.60;;;;;;;17.34;63.25;99274.09;5036388;28;20238;-87
2021/07/02 03:23:41;;;;;;;2.70;2.50;;;;;;;17.29;63.71;99284.13;5020357;28;20353;-88
2021/07/02 03:26:10;;;;;;;3.30;2.50;;;;;;;17.32;63.10;99280.84;5035968;28;20230;-88
2021/07/02 03:28:38;;;;;;;2.70;2.50;;;;;;;17.31;63.41;99274.63;5019865;28;20233;-90
2021/07/02 03:31:05;;;;;;;2.60;2.40;;;;;;;17.26;63.54;99274.66;5019177;28;20282;-89
2021/07/02 03:33:33;;;;;;;3.53;2.73;;;;;;;17.30;63.41;99266.78;5053961;28;20233;-85
2021/07/02 03:36:01;;;;;;;3.67;2.90;;;;;;;17.28;63.61;99279.78;5034666;28;20253;-85
2021/07/02 03:38:28;;;;;;;3.10;2.60;;;;;;;17.35;63.37;99280.31;5019900;28;20532;-84
2021/07/02 03:40:55;;;;;;;2.70;2.50;;;;;;;17.23;63.55;99267.06;5022895;28;20536;-89
2021/07/02 03:43:23;;;;;;;3.33;2.60;;;;;;;17.26;63.63;99271.13;5039105;28;20524;-89
2021/07/02 03:45:52;;;;;;;2.87;2.67;;;;;;;17.21;63.78;99271.94;5023419;28;20230;-89
2021/07/02 03:48:19;;;;;;;5.17;2.90;;;;;;;17.22;64.25;99267.34;5020789;28;20532;-88
2021/07/02 03:50:49;;;;;;;2.60;2.40;;;;;;;17.17;64.04;99268.94;5019216;28;20226;-88
2021/07/02 03:53:18;;;;;;;4.43;2.67;;;;;;;17.21;64.00;99279.25;5019378;28;20226;-87
2021/07/02 03:55:45;;;;;;;2.80;2.60;;;;;;;17.30;63.96;99281.16;5018910;28;20230;-84
2021/07/02 03:58:12;;;;;;;2.70;2.50;;;;;;;17.26;64.03;99274.66;5013731;28;20633;-89
2021/07/02 04:00:38;;;;;;;2.93;2.70;;;;;;;17.38;63.96;99283.28;5035128;28;20704;-85
2021/07/02 04:03:05;;;;;;;4.07;2.70;;;;;;;17.56;63.04;99274.59;5019335;28;20254;-90
2021/07/02 04:05:32;;;;;;;4.73;2.83;;;;;;;18.23;61.53;99283.38;5018897;28;20321;-90
2021/07/02 04:07:59;;;;;;;3.33;2.53;;;;;;;19.53;56.38;99270.06;5051968;28;20261;-90
2021/07/02 04:10:26;;;;;;;4.70;2.80;;;;;;;19.45;56.44;99284.25;5050809;28;20308;-89
2021/07/02 04:12:53;;;;;;;3.73;3.00;;;;;;;18.94;57.40;99283.84;5055629;28;20226;-86
2021/07/02 04:15:20;;;;;;;3.83;2.43;;;;;;;19.01;57.64;99288.94;5055244;28;20249;-85
2021/07/02 04:17:46;;;;;;;2.50;2.30;;;;;;;18.82;58.25;99291.50;5055086;28;20248;-89
2021/07/02 04:20:13;;;;;;;3.20;2.90;;;;;;;18.74;57.38;99297.53;5017290;28;20237;-87
2021/07/02 04:22:40;;;;;;;4.27;2.73;;;;;;;18.84;57.61;99301.00;5034969;28;20668;-86
2021/07/02 04:25:09;;;;;;;2.70;2.50;;;;;;;18.89;57.55;99297.44;5018612;28;20273;-84
2021/07/02 04:27:37;;;;;;;3.23;2.60;;;;;;;18.86;57.68;99298.81;5018503;28;20579;-89
2021/07/02 04:30:05;;;;;;;2.80;2.60;;;;;;;19.01;56.89;99306.03;5019800;28;20254;-89
2021/07/02 04:32:32;;;;;;;4.53;2.70;;;;;;;18.90;57.16;99296.31;5035242;28;20237;-88
2021/07/02 04:34:59;;;;;;;4.97;2.90;;;;;;;18.79;57.22;99301.03;5037504;28;20692;-87
2021/07/02 04:37:26;;;;;;;7.40;2.90;;;;;;;18.88;56.41;99296.63;5038629;28;20637;-87
2021/07/02 04:39:52;;;;;;;2.83;2.50;;;;;;;18.90;56.53;99301.75;5038553;28;20232;-89
2021/07/02 04:42:19;;;;;;;3.23;2.57;;;;;;;18.87;56.41;99295.00;5037955;28;20229;-87
2021/07/02 04:44:46;;;;;;;2.77;2.57;;;;;;;18.83;56.46;99293.13;5054455;28;20252;-89
2021/07/02 04:47:13;;;;;;;3.77;2.67;;;;;;;19.03;56.08;99314.72;5054597;28;20229;-87
2021/07/02 04:49:40;;;;;;;3.83;2.40;;;;;;;19.04;56.63;99313.59;5037923;28;20224;-90
2021/07/02 04:52:06;;;;;;;3.73;2.83;;;;;;;19.25;54.87;99322.41;5037530;28;20228;-90
2021/07/02 04:54:33;;;;;;;2.80;2.40;;;;;;;19.43;54.16;99310.06;5038078;28;20275;-90
2021/07/02 04:57:02;;;;;;;2.77;2.30;;;;;;;19.70;53.13;99305.75;5021682;28;20234;-87
2021/07/02 04:59:32;;;;;;;2.90;2.60;;;;;;;19.96;52.95;99313.66;5038098;28;20221;-84
2021/07/02 05:01:59;;;;;;;3.43;2.73;;;;;;;20.37;51.56;99314.00;5053961;28;20531;-88
2021/07/02 05:04:26;;;;;;;2.63;2.43;;;;;;;20.24;51.34;99304.63;5053939;28;20712;-89
2021/07/02 05:06:53;;;;;;;2.90;2.70;;;;;;;20.34;51.26;99309.97;5020746;28;20232;-86
2021/07/02 05:09:20;;;;;;;4.13;2.43;;;;;;;20.41;51.09;99317.75;5021409;28;20229;-86
2021/07/02 05:11:47;;;;;;;2.57;2.20;;;;;;;20.44;50.61;99304.38;5033970;28;20601;-87
2021/07/02 05:14:14;;;;;;;2.20;2.00;;;;;;;20.01;52.01;99314.41;5035675;28;20249;-88
2021/07/02 05:16:41;;;;;;;2.30;2.10;;;;;;;20.15;51.86;99323.50;5054224;28;20233;-89
2021/07/02 05:19:08;;;;;;;2.57;2.33;;;;;;;20.16;51.32;99299.81;5054401;28;20728;-86
2021/07/02 05:21:35;;;;;;;2.30;2.10;;;;;;;20.36;51.22;99302.31;5021249;28;20229;-90
2021/07/02 05:24:02;;;;;;;2.87;2.13;;;;;;;20.42;50.76;99312.03;5053496;28;20264;-89
2021/07/02 05:26:29;;;;;;;2.30;2.10;;;;;;;20.54;50.60;99322.50;5021150;28;20231;-90
2021/07/02 05:28:55;;;;;;;2.27;1.87;;;;;;;20.24;51.08;99304.63;5036991;28;20230;-89
2021/07/02 05:31:22;;;;;;;2.13;1.93;;;;;;;20.38;51.01;99312.91;5053886;28;20229;-88
2021/07/02 05:33:49;;;;;;;1.90;1.80;;;;;;;20.42;51.18;99311.22;5021412;28;20242;-86
2021/07/02 05:36:16;;;;;;;2.30;2.10;;;;;;;20.54;50.79;99306.97;5053885;28;20308;-89
2021/07/02 05:38:43;;;;;;;3.30;2.30;;;;;;;20.53;50.60;99315.44;5037356;28;20232;-90
2021/07/02 05:41:11;;;;;;;2.50;2.30;;;;;;;20.35;51.17;99316.19;5053307;28;20659;-85
2021/07/02 05:43:38;;;;;;;2.40;2.20;;;;;;;20.46;50.68;99325.88;5036103;28;20233;-87
2021/07/02 05:46:06;;;;;;;2.80;2.10;;;;;;;20.34;51.06;99328.22;5020486;28;20625;-88
2021/07/02 05:48:34;;;;;;;2.63;2.30;;;;;;;20.36;50.84;99321.38;5054053;28;20252;-88
2021/07/02 05:51:01;;;;;;;2.53;2.27;;;;;;;20.47;50.39;99324.78;5053756;28;20514;-88
2021/07/02 05:53:27;;;;;;;2.30;2.10;;;;;;;20.56;50.58;99331.19;5021028;28;20324;-90
2021/07/02 05:55:54;;;;;;;2.20;2.00;;;;;;;20.60;50.36;99338.47;5033753;28;20222;-88
2021/07/02 05:58:21;;;;;;;2.93;2.40;;;;;;;20.74;50.20;99335.84;5037098;28;20575;-90
2021/07/02 06:00:48;;;;;;;2.70;2.30;;;;;;;20.82;49.83;99337.91;5048283;28;20249;-90
2021/07/02 06:03:14;;;;;;;2.53;2.30;;;;;;;20.49;50.97;99339.69;5034172;28;20227;-87
2021/07/02 06:05:41;;;;;;;3.20;2.40;;;;;;;20.50;50.57;99341.31;5042149;28;20301;-86
2021/07/02 06:08:08;;;;;;;2.73;2.27;;;;;;;20.52;50.53;99341.03;5020808;28;20226;-89
2021/07/02 06:10:35;;;;;;;2.60;2.40;;;;;;;20.33;50.87;99348.34;5053849;28;20221;-90
2021/07/02 06:13:02;;;;;;;2.63;2.43;;;;;;;20.44;51.19;99360.72;5053743;28;20254;-86
2021/07/02 06:15:29;;;;;;;3.23;2.63;;;;;;;20.52;50.39;99351.94;5055086;28;20230;-91
2021/07/02 06:17:57;;;;;;;2.40;2.20;;;;;;;20.41;50.97;99340.34;5037769;28;20684;-87
2021/07/02 06:20:26;;;;;;;2.40;2.20;;;;;;;20.17;51.59;99334.06;5056961;28;20237;-87
2021/07/02 06:22:52;;;;;;;2.77;2.53;;;;;;;20.42;50.95;99338.44;5041061;28;20252;-88
2021/07/02 06:25:19;;;;;;;2.60;2.40;;;;;;;20.35;51.39;99351.56;5024659;28;20346;-87
2021/07/02 06:27:46;;;;;;;3.10;2.37;;;;;;;20.48;51.01;99350.91;5024158;28;20221;-90
2021/07/02 06:30:16;;;;;;;3.37;2.40;;;;;;;20.43;51.37;99362.66;5040195;28;20227;-90
2021/07/02 06:32:43;;;;;;;3.60;2.30;;;;;;;20.23;51.50;99349.25;5056875;28;20672;-87
2021/07/02 06:35:10;;;;;;;3.33;2.30;;;;;;;20.14;51.62;99346.34;5058343;28;20284;-86
2021/07/02 06:37:37;;;;;;;2.70;2.50;;;;;;;20.14;51.78;99365.38;5057188;28;20652;-87
2021/07/02 06:40:06;;;;;;;2.87;2.50;;;;;;;20.06;52.09;99352.41;5014153;28;20320;-90
2021/07/02 06:42:33;;;;;;;2.87;2.60;;;;;;;19.93;52.59;99365.88;5024471;28;20243;-92
2021/07/02 06:45:00;;;;;;;3.30;2.57;;;;;;;19.83;53.02;99368.72;5040688;28;20226;-91
2021/07/02 06:47:27;;;;;;;2.70;2.50;;;;;;;19.77;53.27;99366.03;5057007;28;20295;-88
2021/07/02 06:49:54;;;;;;;2.57;2.37;;;;;;;19.82;53.12;99376.03;5039289;28;20664;-86
2021/07/02 06:52:21;;;;;;;2.50;2.30;;;;;;;19.72;53.16;99379.66;5025805;28;20240;-88
2021/07/02 06:54:47;;;;;;;2.90;2.17;;;;;;;19.61;53.11;99369.16;5056418;28;20308;-86
2021/07/02 06:57:15;;;;;;;2.77;2.17;;;;;;;19.78;52.76;99375.78;5048276;28;20235;-86
2021/07/02 06:59:42;;;;;;;2.30;2.10;;;;;;;19.75;53.21;99383.72;5034274;28;20229;-87
2021/07/02 07:02:10;;;;;;;2.50;2.30;;;;;;;19.83;52.89;99374.16;5038951;28;20249;-87
2021/07/02 07:04:38;;;;;;;3.03;2.73;;;;;;;19.81;52.90;99398.06;5011121;28;20226;-86
2021/07/02 07:07:06;;;;;;;4.10;2.60;;;;;;;19.76;53.03;99388.88;5038446;28;20267;-82
2021/07/02 07:09:34;;;;;;;2.87;2.67;;;;;;;19.84;52.86;99394.78;5049986;28;20325;-88
2021/07/02 07:12:01;;;;;;;2.57;2.37;;;;;;;19.75;53.13;99406.25;5039107;28;20226;-87
2021/07/02 07:14:28;;;;;;;2.50;2.30;;;;;;;19.90;52.43;99393.63;5038848;28;20328;-86
2021/07/02 07:16:55;;;;;;;2.50;2.30;;;;;;;19.94;52.50;99391.97;5022666;28;20225;-84
2021/07/02 07:19:27;;;;;;;2.60;2.40;;;;;;;19.92;52.04;99397.72;5037847;28;20320;-86
2021/07/02 07:21:55;;;;;;;3.00;2.47;;;;;;;19.90;51.63;99401.78;5032941;28;20297;-87
2021/07/02 07:24:22;;;;;;;2.60;2.40;;;;;;;20.04;50.74;99395.41;5053992;28;20225;-86
2021/07/02 07:26:56;;;;;;;2.63;2.37;;;;;;;20.11;51.01;99405.97;5055661;28;20232;-85
2021/07/02 07:29:24;;;;;;;2.87;2.53;;;;;;;20.15;50.60;99396.94;5038392;28;20296;-87
2021/07/02 07:31:52;;;;;;;3.20;2.57;;;;;;;20.31;50.60;99394.06;5029804;28;20521;-88
2021/07/02 07:34:35;;;;;;;3.60;2.33;;;;;;;20.39;50.92;99399.66;5038506;28;20435;-89
2021/07/02 07:37:09;;;;;;;2.57;2.33;;;;;;;20.57;50.76;99403.56;5041697;28;20245;-86
2021/07/02 07:39:36;;;;;;;3.03;2.60;;;;;;;20.63;50.86;99402.41;5035890;28;20228;-88
2021/07/02 07:42:04;;;;;;;3.40;2.60;;;;;;;20.52;50.46;99399.00;5038364;28;20625;-90
2021/07/02 07:44:31;;;;;;;2.83;2.57;;;;;;;20.81;50.03;99396.16;5022443;28;20260;-87
2021/07/02 07:46:58;;;;;;;2.90;2.70;;;;;;;21.08;49.75;99403.72;5038540;28;20217;-88
2021/07/02 07:49:25;;;;;;;3.00;2.70;;;;;;;21.30;50.09;99405.88;5035223;28;20226;-89
2021/07/02 07:54:39;;;;;;;4.70;2.80;;;;;;;21.71;50.64;99390.50;5039483;28;20221;-86
2021/07/02 07:57:06;;;;;;;3.77;3.00;;;;;;;21.98;50.55;99408.09;5028153;28;20279;-88
2021/07/02 07:59:34;;;;;;;3.43;2.70;;;;;;;22.07;50.55;99409.03;5037796;28;20293;-85
2021/07/02 08:02:01;;;;;;;2.97;2.67;;;;;;;22.14;50.90;99403.97;5038619;28;20639;-86
2021/07/02 08:04:28;;;;;;;3.10;2.40;;;;;;;22.00;51.05;99403.16;5036008;28;20218;-86
2021/07/02 08:06:55;;;;;;;4.20;2.70;;;;;;;21.85;51.50;99409.63;5030071;28;20236;-86
2021/07/02 08:09:22;;;;;;;3.03;2.73;;;;;;;21.76;50.60;99409.50;5029093;28;20281;-86
2021/07/02 08:11:49;;;;;;;3.10;2.90;;;;;;;21.77;51.99;99415.78;5035271;28;20632;-88
2021/07/02 08:14:15;;;;;;;3.10;2.90;;;;;;;21.72;51.99;99408.50;5024685;28;20303;-88
2021/07/02 08:16:42;;;;;;;3.13;2.87;;;;;;;21.63;51.69;99417.66;5029672;28;20307;-85
2021/07/02 08:19:09;;;;;;;4.17;3.10;;;;;;;21.56;52.41;99417.22;5047614;28;20658;-89
2021/07/02 08:21:36;;;;;;;3.07;2.87;;;;;;;21.37;52.41;99411.78;5054097;28;20213;-89
2021/07/02 08:24:04;;;;;;;3.10;2.80;;;;;;;21.52;52.88;99412.34;5034345;28;20643;-90
2021/07/02 08:26:30;;;;;;;3.03;2.83;;;;;;;21.66;52.37;99406.94;5034848;28;20265;-87
2021/07/02 08:31:43;;;;;;;3.07;2.77;;;;;;;21.92;51.58;99410.88;5031411;28;20273;-89
2021/07/02 08:34:10;;;;;;;6.57;3.37;;;;;;;21.93;50.85;99406.25;5037053;28;20647;-90
2021/07/02 08:36:37;;;;;;;3.77;2.80;;;;;;;21.82;50.97;99407.50;5036380;28;20249;-87
2021/07/02 08:39:04;;;;;;;3.03;2.73;;;;;;;22.22;49.12;99406.00;5036734;28;20317;-90
2021/07/02 08:41:32;;;;;;;3.00;2.70;;;;;;;22.36;47.86;99410.38;5036356;28;20226;-88
2021/07/02 08:43:59;;;;;;;3.10;2.80;;;;;;;22.66;46.60;99413.63;5036891;28;20646;-87
2021/07/02 08:46:27;;;;;;;7.13;2.93;;;;;;;22.01;47.99;99412.94;5036836;28;20310;-86
2021/07/02 08:48:54;;;;;;;3.97;2.67;;;;;;;22.80;46.22;99412.53;5053245;28;20237;-86
2021/07/02 08:51:23;;;;;;;2.73;2.50;;;;;;;22.79;45.94;99396.44;5037224;28;20623;-88
2021/07/02 08:53:52;;;;;;;2.90;2.40;;;;;;;22.75;45.98;99398.97;5053559;28;20227;-89
2021/07/02 08:56:19;;;;;;;2.83;2.63;;;;;;;22.32;46.69;99405.81;5053117;28;20238;-86
2021/07/02 08:58:46;;;;;;;2.90;2.60;;;;;;;22.29;47.69;99409.16;5020529;28;20237;-87
2021/07/02 09:01:33;;;;;;;2.90;2.60;;;;;;;22.25;48.36;99413.59;5053045;28;20227;-87
2021/07/02 09:04:23;;;;;;;2.80;2.60;;;;;;;21.87;48.58;99419.16;5020567;28;20240;-88
2021/07/02 09:07:02;;;;;;;2.60;2.40;;;;;;;21.47;48.86;99423.31;5036905;28;20325;-89
2021/07/02 09:09:48;;;;;;;2.57;2.37;;;;;;;21.39;48.86;99426.72;5033722;28;20238;-86
2021/07/02 09:12:18;;;;;;;2.50;2.30;;;;;;;21.35;49.05;99424.88;5033868;28;20226;-88
2021/07/02 09:15:06;;;;;;;3.77;2.17;;;;;;;21.65;48.35;99431.81;5023553;28;20233;-89
2021/07/02 09:17:36;;;;;;;2.50;2.30;;;;;;;21.57;48.05;99436.00;5036716;28;20295;-88
2021/07/02 09:20:14;;;;;;;2.60;2.40;;;;;;;21.63;48.34;99426.63;5036201;28;20270;-89
2021/07/02 09:22:54;;;;;;;3.07;2.43;;;;;;;21.60;48.12;99424.50;5020337;28;20226;-88
2021/07/02 09:25:29;;;;;;;2.80;2.60;;;;;;;21.40;48.70;99422.09;5033383;28;20573;-90
2021/07/02 09:28:11;;;;;;;3.20;2.37;;;;;;;21.40;48.54;99431.09;5017152;28;20291;-89
2021/07/02 09:30:43;;;;;;;3.27;2.50;;;;;;;21.19;48.61;99428.91;5032892;28;20230;-85
2021/07/02 09:33:12;;;;;;;3.00;2.70;;;;;;;21.38;48.60;99430.56;5017171;28;20238;-88
2021/07/02 09:35:52;;;;;;;2.60;2.37;;;;;;;21.28;48.86;99435.34;5033691;28;20627;-90
2021/07/02 09:38:36;;;;;;;4.30;2.80;;;;;;;21.49;47.67;99426.59;5032910;28;20227;-89
2021/07/02 09:41:04;;;;;;;4.33;3.00;;;;;;;21.50;48.16;99428.22;5033224;28;20231;-84
2021/07/02 09:43:31;;;;;;;3.83;2.77;;;;;;;21.62;48.36;99422.28;5020593;28;20248;-88
2021/07/02 09:46:02;;;;;;;3.87;2.77;;;;;;;21.68;47.29;99418.38;5037804;28;20745;-86
2021/07/02 09:48:31;;;;;;;2.60;2.40;;;;;;;21.83;46.62;99417.31;5037359;28;20579;-88
2021/07/02 09:51:03;;;;;;;2.73;2.53;;;;;;;21.42;47.01;99428.84;5037392;28;20314;-84
2021/07/02 09:53:34;;;;;;;3.67;2.57;;;;;;;21.72;47.32;99426.78;5039016;28;20226;-85
2021/07/02 09:56:04;;;;;;;3.67;2.60;;;;;;;21.54;48.39;99439.31;5040214;28;20316;-90
2021/07/02 09:58:40;;;;;;;3.23;2.93;;;;;;;21.47;48.64;99433.41;5041114;28;20647;-89
2021/07/02 10:01:09;;;;;;;3.30;3.00;;;;;;;21.40;48.95;99446.63;5040752;28;20237;-86
2021/07/02 10:03:40;;;;;;;3.10;2.80;;;;;;;21.50;48.37;99411.03;5057279;28;20229;-86
2021/07/02 10:06:14;;;;;;;3.10;2.80;;;;;;;21.39;48.12;99434.09;5040714;28;20626;-86
2021/07/02 10:08:41;;;;;;;3.40;3.10;;;;;;;21.38;48.16;99441.44;5057252;28;20316;-88
2021/07/02 10:11:13;;;;;;;3.83;2.93;;;;;;;21.09;48.51;99432.56;5057350;28;20245;-88
2021/07/02 10:13:45;;;;;;;3.20;2.90;;;;;;;21.11;48.77;99444.00;5040915;28;20510;-87
2021/07/02 10:16:13;;;;;;;3.30;3.00;;;;;;;21.19;49.10;99450.72;5056637;28;20529;-86
2021/07/02 10:19:07;;;;;;;3.03;2.73;;;;;;;21.07;48.24;99443.78;5040642;28;20225;-87
2021/07/02 10:21:34;;;;;;;3.23;2.93;;;;;;;20.83;48.81;99432.09;5038815;28;20221;-86
2021/07/02 10:24:01;;;;;;;3.47;3.13;;;;;;;20.97;48.23;99432.19;5036717;28;20229;-83
2021/07/02 10:26:30;;;;;;;3.37;3.00;;;;;;;21.00;48.60;99437.03;5020714;28;20269;-89
2021/07/02 10:28:57;;;;;;;4.47;3.07;;;;;;;21.04;48.14;99438.88;5020497;28;20318;-90
2021/07/02 10:31:24;;;;;;;2.93;2.70;;;;;;;20.86;48.48;99434.22;5020570;28;20235;-86
2021/07/02 10:33:54;;;;;;;3.10;2.80;;;;;;;20.71;49.41;99439.06;5020389;28;20251;-88
2021/07/02 10:36:21;;;;;;;3.00;2.70;;;;;;;20.51;49.56;99431.94;5020635;28;20693;-89
2021/07/02 10:38:50;;;;;;;4.40;3.33;;;;;;;20.36;49.74;99429.38;5020636;28;20634;-91
2021/07/02 10:41:21;;;;;;;3.30;3.00;;;;;;;20.13;50.45;99425.50;5020484;28;20226;-84
2021/07/02 10:44:30;;;;;;;3.90;3.30;;;;;;;20.24;50.14;99421.59;5020920;28;20242;-90
2021/07/02 10:46:57;;;;;;;5.20;3.00;;;;;;;20.27;50.56;99423.72;5036820;28;20533;-86
2021/07/02 10:49:39;;;;;;;3.37;3.00;;;;;;;20.30;50.16;99428.59;5037067;28;20300;-89
2021/07/02 10:52:33;;;;;;;3.30;3.00;;;;;;;20.48;49.61;99429.81;5020519;28;20244;-89
2021/07/02 10:55:05;;;;;;;3.50;2.90;;;;;;;20.52;48.87;99426.22;5018989;28;20291;-90
2021/07/02 10:57:31;;;;;;;3.53;2.87;;;;;;;20.67;48.00;99436.09;5020855;28;20230;-87
2021/07/02 11:00:04;;;;;;;4.07;3.00;;;;;;;20.86;47.36;99415.16;5036973;28;20230;-90
2021/07/02 11:02:32;;;;;;;4.10;3.20;;;;;;;20.85;47.67;99408.13;5053081;28;20234;-85
2021/07/02 11:05:00;;;;;;;4.53;3.10;;;;;;;21.34;46.71;99413.19;5035924;28;20276;-89
2021/07/02 11:07:29;;;;;;;4.33;3.43;;;;;;;21.51;46.01;99409.91;5037179;28;20234;-90
2021/07/02 11:10:00;;;;;;;4.87;2.93;;;;;;;21.67;46.00;99405.84;5036256;28;20226;-90
2021/07/02 11:12:45;;;;;;;3.33;3.03;;;;;;;21.75;45.34;99409.81;5036809;28;20234;-88
2021/07/02 11:15:18;;;;;;;3.63;3.33;;;;;;;21.77;45.33;99397.50;5039924;28;20225;-85
2021/07/02 11:17:49;;;;;;;4.77;3.40;;;;;;;22.01;45.15;99413.75;5055934;28;20241;-85
2021/07/02 11:20:21;;;;;;;4.70;3.43;;;;;;;22.20;44.47;99408.25;5022706;28;20321;-90
2021/07/02 11:22:49;;;;;;;4.97;3.60;;;;;;;22.22;44.52;99403.28;5056185;28;20230;-88
2021/07/02 11:25:32;;;;;;;6.73;3.50;;;;;;;22.36;44.07;99395.91;5022876;28;20682;-89
2021/07/02 11:28:02;;;;;;;4.67;3.37;;;;;;;22.38;42.82;99438.19;5039610;28;20543;-90
2021/07/02 11:30:40;;;;;;;4.90;3.47;;;;;;;22.65;42.76;99399.16;5021854;28;20710;-86
2021/07/02 11:33:10;;;;;;;4.47;3.27;;;;;;;22.97;42.33;99400.97;5021827;28;20222;-87
2021/07/02 11:35:42;;;;;;;3.73;3.37;;;;;;;23.48;41.31;99406.13;5055348;28;20247;-86
2021/07/02 11:38:13;;;;;;;4.47;3.30;;;;;;;23.94;40.38;99400.31;5022225;28;20719;-87
2021/07/02 11:40:44;;;;;;;3.77;3.43;;;;;;;24.28;39.85;99390.72;5039242;28;20228;-87
2021/07/02 11:43:22;;;;;;;4.27;3.20;;;;;;;24.11;39.19;99403.19;5055613;28;20239;-84
2021/07/02 11:45:54;;;;;;;4.47;3.70;;;;;;;24.58;39.09;99400.03;5036233;28;20241;-87
2021/07/02 11:48:21;;;;;;;3.73;3.43;;;;;;;24.78;38.94;99393.94;5054956;28;20249;-87